Terminal Aerodrome Forecast
Issued by NWS

Home | Current Version | Previous Version | Text Only | Print | Product List | Glossary On
Versions: 1 2 3 4 5 6 7 8 9 10 11 12 13 14 15 16 17 18
000
FTUS43 KLSX 162338
TAFCPS
TAF
KCPS 162338Z 1700/1724 20010KT P6SM BKN250
     FM170300 22007KT P6SM SCT250 WS015/26040KT
     FM171000 23005KT P6SM FEW250 WS015/27040KT
     FM171400 22010KT P6SM FEW250=

USA.gov is the U.S. government's official web portal to all federal, state and local government web resources and services.